CheckWX is a tool to help pilots better visualize weather data.  It is not intended as a substitute for an official pre-flight weather briefing.

03:55:14 UTC

KHGR METAR
Hagerstown Regional-Richard A Henson Field Airport
Hagerstown, Maryland, USA
Current

1 hour ago

KHGR 220253Z AUTO 14004KT 10SM CLR 23/23 A2991 RMK AO2 RAE26 SLP129 P0002 60081 T02330233 58014
Observed
Jul-22 @ 02:53 UTC
Wind
  • 140° at 4 KTS
Visibility
10 SM
Flight Rules
VFR
Cloud Levels
  • Clear skies
Temperature
23°C / 73°F
Dewpoint
23°C / 73°F
Humidity
100%
Altimeter
29.91" Hg
Pressure
1012.92 hPa
Current Rain
0.02"
Previous

2 hours ago

KHGR 220153Z 35010KT 10SM -RA FEW120 23/23 A2993 RMK AO2 LTG DSNT N AND NE TSE16 SLP137 TS OHD MOVE E P0024 T02330233
Observed
Jul-22 @ 01:53 UTC
Wind
  • 350° at 10 KTS
Visibility
10 SM
Flight Rules
VFR
Conditions
Light Rain
Cloud Levels
  • Few at 12,000' AGL
Temperature
23°C / 73°F
Dewpoint
23°C / 73°F
Humidity
100%
Altimeter
29.93" Hg
Pressure
1013.52 hPa
Current Rain
0.24"
Previous

2 hours ago

KHGR 220137Z 36009KT 10SM VCTS -RA SCT060 SCT070 BKN110 23/23 A2992 RMK AO2 LTG DSNT N AND NE TSE16 TS OHD MOVE E P0023 T02330233
Observed
Jul-22 @ 01:37 UTC
Wind
  • 360° at 9 KTS
Visibility
10 SM
Flight Rules
VFR
Conditions
Area Thunderstorm, Light Rain
Cloud Levels
  • Scattered at 6,000' AGL
  • Scattered at 7,000' AGL
  • Broken at 11,000' AGL
Temperature
23°C / 73°F
Dewpoint
23°C / 73°F
Humidity
100%
Altimeter
29.92" Hg
Pressure
1013.22 hPa
Current Rain
0.23"